createdAt,value
2018-09-22T00:00:17.080Z,99986.00
2018-09-22T00:02:47.216Z,99984.00
2018-09-22T00:05:16.768Z,99995.00
2018-09-22T00:07:45.936Z,100000.00
2018-09-22T00:10:15.623Z,99998.00
2018-09-22T00:12:46.109Z,99999.00
2018-09-22T00:15:15.380Z,100004.00
2018-09-22T00:17:44.743Z,100007.00
2018-09-22T00:20:14.492Z,100011.00
2018-09-22T00:22:50.366Z,100020.00
2018-09-22T00:25:19.518Z,100020.00
2018-09-22T00:27:48.645Z,100023.00
2018-09-22T00:30:18.090Z,100037.00
2018-09-22T00:32:47.288Z,100033.00
2018-09-22T00:35:16.589Z,100031.00
2018-09-22T00:37:45.819Z,100034.00
2018-09-22T00:40:15.054Z,100047.00
2018-09-22T00:42:44.379Z,100045.00
2018-09-22T00:45:13.468Z,100040.00
2018-09-22T00:47:43.097Z,100047.00
2018-09-22T00:50:12.394Z,100048.00
2018-09-22T00:52:42.246Z,100040.00
2018-09-22T00:55:12.251Z,100040.00
2018-09-22T00:57:43.228Z,100049.00
2018-09-22T01:00:12.508Z,100029.00
2018-09-22T01:02:41.911Z,100054.00
2018-09-22T01:05:11.535Z,100041.00
2018-09-22T01:07:42.130Z,100044.00
2018-09-22T01:10:12.173Z,100054.00
2018-09-22T01:12:41.489Z,100056.00
2018-09-22T01:15:10.655Z,100064.00
2018-09-22T01:17:40.099Z,100061.00
2018-09-22T01:20:10.748Z,100052.00
2018-09-22T01:22:40.036Z,100067.00
2018-09-22T01:25:09.660Z,100071.00
2018-09-22T01:27:38.873Z,100078.00
2018-09-22T01:30:08.609Z,100074.00
2018-09-22T01:32:37.807Z,100082.00
2018-09-22T01:35:07.223Z,100074.00
2018-09-22T01:37:36.512Z,100085.00
2018-09-22T01:40:05.828Z,100087.00
2018-09-22T01:42:34.922Z,100083.00
2018-09-22T01:45:04.376Z,100087.00
2018-09-22T01:47:33.540Z,100086.00
2018-09-22T01:50:03.277Z,100082.00
2018-09-22T01:52:32.789Z,100078.00
2018-09-22T01:55:01.977Z,100092.00
2018-09-22T01:57:31.363Z,100079.00
2018-09-22T02:00:00.433Z,100088.00
2018-09-22T02:02:29.492Z,100091.00
2018-09-22T02:04:58.608Z,100082.00
2018-09-22T02:07:27.768Z,100075.00
2018-09-22T02:09:57.121Z,100099.00
2018-09-22T02:12:26.322Z,100102.00
2018-09-22T02:14:55.428Z,100097.00
2018-09-22T02:17:24.684Z,100096.00
2018-09-22T02:19:54.139Z,100104.00
2018-09-22T02:22:23.682Z,100108.00
2018-09-22T02:24:53.704Z,100098.00
2018-09-22T02:27:23.522Z,100114.00
2018-09-22T02:29:52.624Z,100106.00
2018-09-22T02:32:22.034Z,100104.00
2018-09-22T02:34:51.069Z,100103.00
2018-09-22T02:37:21.146Z,100104.00
2018-09-22T02:39:50.325Z,100100.00
2018-09-22T02:42:19.850Z,100096.00
2018-09-22T02:44:49.251Z,100100.00
2018-09-22T02:47:18.880Z,100088.00
2018-09-22T02:49:48.116Z,100088.00
2018-09-22T02:52:18.687Z,100086.00
2018-09-22T02:54:47.903Z,100091.00
2018-09-22T02:57:17.043Z,100106.00
2018-09-22T02:59:46.195Z,100111.00
2018-09-22T03:02:16.676Z,100122.00
2018-09-22T03:04:45.932Z,100117.00
2018-09-22T03:07:16.518Z,100122.00
2018-09-22T03:09:45.928Z,100120.00
2018-09-22T03:12:15.710Z,100126.00
2018-09-22T03:14:45.193Z,100120.00
2018-09-22T03:17:14.865Z,100122.00
2018-09-22T03:19:44.857Z,100131.00
2018-09-22T03:22:14.084Z,100138.00
2018-09-22T03:24:43.783Z,100140.00
2018-09-22T03:27:13.148Z,100146.00
2018-09-22T03:29:42.480Z,100144.00
2018-09-22T03:32:11.881Z,100144.00
2018-09-22T03:34:42.375Z,100150.00
2018-09-22T03:37:12.334Z,100143.00
2018-09-22T03:39:41.733Z,100145.00
2018-09-22T03:42:11.083Z,100150.00
2018-09-22T03:44:40.376Z,100154.00
2018-09-22T03:47:09.704Z,100157.00
2018-09-22T03:49:38.900Z,100158.00
2018-09-22T03:52:08.160Z,100154.00
2018-09-22T03:54:37.341Z,100148.00
2018-09-22T03:57:07.407Z,100147.00
2018-09-22T03:59:36.576Z,100153.00
2018-09-22T04:02:05.637Z,100151.00
2018-09-22T04:04:35.595Z,100154.00
2018-09-22T04:07:04.810Z,100149.00
2018-09-22T04:09:34.084Z,100147.00
2018-09-22T04:12:03.395Z,100151.00
2018-09-22T04:14:33.184Z,100153.00
2018-09-22T04:17:02.327Z,100164.00
2018-09-22T04:19:32.455Z,100160.00
2018-09-22T04:22:02.171Z,100158.00
2018-09-22T04:24:31.480Z,100177.00
2018-09-22T04:27:00.710Z,100168.00
2018-09-22T04:29:29.993Z,100172.00
2018-09-22T04:31:59.149Z,100167.00
2018-09-22T04:34:28.360Z,100186.00
2018-09-22T04:36:58.886Z,100189.00
2018-09-22T04:39:28.683Z,100190.00
2018-09-22T04:41:57.821Z,100190.00
2018-09-22T04:44:27.224Z,100190.00
2018-09-22T04:46:56.662Z,100191.00
2018-09-22T04:49:26.029Z,100198.00
2018-09-22T04:51:55.633Z,100203.00
2018-09-22T04:54:24.910Z,100195.00
2018-09-22T04:56:54.313Z,100204.00
2018-09-22T04:59:23.665Z,100210.00
2018-09-22T05:01:53.005Z,100207.00
2018-09-22T05:04:22.224Z,100203.00
2018-09-22T05:06:51.852Z,100201.00
2018-09-22T05:09:21.081Z,100208.00
2018-09-22T05:11:50.392Z,100202.00
2018-09-22T05:14:19.446Z,100215.00
2018-09-22T05:16:48.696Z,100215.00
2018-09-22T05:19:18.050Z,100214.00
2018-09-22T05:21:47.552Z,100212.00
2018-09-22T05:24:16.931Z,100208.00
2018-09-22T05:26:46.754Z,100213.00
2018-09-22T05:29:15.954Z,100229.00
2018-09-22T05:31:45.733Z,100232.00
2018-09-22T05:34:15.409Z,100249.00
2018-09-22T05:36:44.838Z,100256.00
2018-09-22T05:39:14.113Z,100251.00
2018-09-22T05:41:43.400Z,100253.00
2018-09-22T05:44:12.550Z,100258.00
2018-09-22T05:46:42.222Z,100268.00
2018-09-22T05:49:11.461Z,100262.00
2018-09-22T05:51:42.090Z,100257.00
2018-09-22T05:54:11.478Z,100262.00
2018-09-22T05:56:40.968Z,100252.00
2018-09-22T05:59:11.149Z,100256.00
2018-09-22T06:01:41.201Z,100257.00
2018-09-22T06:04:10.883Z,100245.00
2018-09-22T06:06:40.257Z,100241.00
2018-09-22T06:09:10.523Z,100256.00
2018-09-22T06:11:40.212Z,100263.00
2018-09-22T06:14:09.729Z,100247.00
2018-09-22T06:16:39.049Z,100254.00
2018-09-22T06:19:08.645Z,100261.00
2018-09-22T06:21:38.581Z,100258.00
2018-09-22T06:24:08.298Z,100254.00
2018-09-22T06:26:37.575Z,100247.00
2018-09-22T06:29:06.937Z,100243.00
2018-09-22T06:31:36.135Z,100249.00
2018-09-22T06:34:06.208Z,100226.00
2018-09-22T06:36:35.710Z,100224.00
2018-09-22T06:39:08.617Z,100224.00
2018-09-22T06:41:38.034Z,100225.00
2018-09-22T06:44:07.349Z,100227.00
2018-09-22T06:46:37.011Z,100222.00
2018-09-22T06:49:06.152Z,100224.00
2018-09-22T06:51:35.476Z,100227.00
2018-09-22T06:54:04.740Z,100239.00
2018-09-22T06:56:35.213Z,100240.00
2018-09-22T06:59:04.414Z,100237.00
2018-09-22T07:01:33.615Z,100243.00
2018-09-22T07:04:03.006Z,100238.00
2018-09-22T07:06:32.407Z,100233.00
2018-09-22T07:09:01.764Z,100238.00
2018-09-22T07:11:32.504Z,100240.00
2018-09-22T07:14:01.856Z,100245.00
2018-09-22T07:16:30.955Z,100255.00
2018-09-22T07:19:00.226Z,100263.00
2018-09-22T07:21:34.580Z,100262.00
2018-09-22T07:24:03.789Z,100257.00
2018-09-22T07:26:32.930Z,100256.00
2018-09-22T07:29:02.021Z,100263.00
2018-09-22T07:31:31.221Z,100269.00
2018-09-22T07:34:00.579Z,100275.00
2018-09-22T07:36:29.874Z,100272.00
2018-09-22T07:38:58.996Z,100277.00
2018-09-22T07:41:28.414Z,100270.00
2018-09-22T07:43:57.676Z,100271.00
2018-09-22T07:46:26.871Z,100267.00
2018-09-22T07:48:56.201Z,100265.00
2018-09-22T07:51:25.328Z,100278.00
2018-09-22T07:53:54.773Z,100266.00
2018-09-22T07:56:24.180Z,100272.00
2018-09-22T07:58:53.614Z,100263.00
2018-09-22T08:01:23.077Z,100270.00
2018-09-22T08:03:52.467Z,100266.00
2018-09-22T08:06:22.131Z,100265.00
2018-09-22T08:08:51.569Z,100273.00
2018-09-22T08:11:21.012Z,100285.00
2018-09-22T08:13:50.247Z,100285.00
2018-09-22T08:16:19.549Z,100283.00
2018-09-22T08:18:49.121Z,100258.00
2018-09-22T08:21:18.190Z,100270.00
2018-09-22T08:23:47.430Z,100270.00
2018-09-22T08:26:16.556Z,100261.00
2018-09-22T08:28:45.696Z,100256.00
2018-09-22T08:31:15.296Z,100255.00
2018-09-22T08:33:44.623Z,100257.00
2018-09-22T08:36:15.072Z,100261.00
2018-09-22T08:38:44.392Z,100267.00
2018-09-22T08:41:13.781Z,100279.00
2018-09-22T08:43:42.986Z,100292.00
2018-09-22T08:46:12.630Z,100279.00
2018-09-22T08:48:42.344Z,100269.00
2018-09-22T08:51:11.492Z,100254.00
2018-09-22T08:53:41.048Z,100264.00
2018-09-22T08:56:10.549Z,100264.00
2018-09-22T08:58:39.686Z,100255.00
2018-09-22T09:01:09.179Z,100248.00
2018-09-22T09:03:38.659Z,100238.00
2018-09-22T09:06:08.262Z,100241.00
2018-09-22T09:08:37.504Z,100246.00
2018-09-22T09:11:07.055Z,100245.00
2018-09-22T09:13:36.136Z,100251.00
2018-09-22T09:16:05.983Z,100250.00
2018-09-22T09:18:35.144Z,100238.00
2018-09-22T09:21:04.594Z,100262.00
2018-09-22T09:23:34.824Z,100267.00
2018-09-22T09:26:04.169Z,100274.00
2018-09-22T09:28:33.765Z,100263.00
2018-09-22T09:31:03.139Z,100255.00
2018-09-22T09:33:32.390Z,100245.00
2018-09-22T09:36:01.709Z,100246.00
2018-09-22T09:38:33.546Z,100251.00
2018-09-22T09:41:02.635Z,100229.00
2018-09-22T09:43:32.184Z,100234.00
2018-09-22T09:46:01.325Z,100215.00
2018-09-22T09:48:30.423Z,100216.00
2018-09-22T09:50:59.610Z,100223.00
2018-09-22T09:53:28.852Z,100228.00
2018-09-22T09:55:58.020Z,100229.00
2018-09-22T09:58:27.115Z,100215.00
2018-09-22T10:00:56.564Z,100198.00
2018-09-22T10:03:25.708Z,100208.00
2018-09-22T10:05:54.940Z,100223.00
2018-09-22T10:08:25.117Z,100210.00
2018-09-22T10:10:54.258Z,100203.00
2018-09-22T10:13:24.011Z,100204.00
2018-09-22T10:15:53.091Z,100188.00
2018-09-22T10:18:22.231Z,100185.00
2018-09-22T10:20:51.613Z,100182.00
2018-09-22T10:23:20.891Z,100184.00
2018-09-22T10:25:50.882Z,100170.00
2018-09-22T10:28:20.168Z,100184.00
2018-09-22T10:30:49.309Z,100180.00
2018-09-22T10:33:18.945Z,100180.00
2018-09-22T10:35:48.116Z,100180.00
2018-09-22T10:38:17.683Z,100168.00
2018-09-22T10:40:47.094Z,100166.00
2018-09-22T10:43:16.199Z,100174.00
2018-09-22T10:45:45.395Z,100167.00
2018-09-22T10:48:15.324Z,100167.00
2018-09-22T10:50:44.744Z,100173.00
2018-09-22T10:53:14.141Z,100177.00
2018-09-22T10:55:43.558Z,100183.00
2018-09-22T10:58:12.878Z,100174.00
2018-09-22T11:00:42.215Z,100177.00
2018-09-22T11:03:11.638Z,100174.00
2018-09-22T11:05:40.914Z,100168.00
2018-09-22T11:08:10.115Z,100177.00
2018-09-22T11:10:39.341Z,100174.00
2018-09-22T11:13:08.600Z,100170.00
2018-09-22T11:15:38.047Z,100173.00
2018-09-22T11:18:08.023Z,100157.00
2018-09-22T11:20:37.422Z,100156.00
2018-09-22T11:23:06.800Z,100156.00
2018-09-22T11:25:36.155Z,100147.00
2018-09-22T11:28:05.606Z,100143.00
2018-09-22T11:30:34.868Z,100155.00
2018-09-22T11:33:04.455Z,100145.00
2018-09-22T11:35:33.767Z,100149.00
2018-09-22T11:38:02.983Z,100138.00
2018-09-22T11:40:32.370Z,100140.00
2018-09-22T11:43:01.747Z,100127.00
2018-09-22T11:45:30.928Z,100120.00
2018-09-22T11:48:00.077Z,100123.00
2018-09-22T11:50:29.185Z,100143.00
2018-09-22T11:52:58.361Z,100141.00
2018-09-22T11:55:27.787Z,100147.00
2018-09-22T11:57:59.052Z,100142.00
2018-09-22T12:00:29.049Z,100145.00
2018-09-22T12:02:58.269Z,100154.00
2018-09-22T12:05:27.316Z,100146.00
2018-09-22T12:07:56.531Z,100142.00
2018-09-22T12:10:26.067Z,100127.00
2018-09-22T12:12:56.333Z,100138.00
2018-09-22T12:15:25.713Z,100129.00
2018-09-22T12:17:56.242Z,100114.00
2018-09-22T12:20:25.396Z,100120.00
2018-09-22T12:22:54.571Z,100120.00
2018-09-22T12:25:23.901Z,100125.00
2018-09-22T12:27:53.669Z,100123.00
2018-09-22T12:30:22.825Z,100130.00
2018-09-22T12:32:52.142Z,100144.00
2018-09-22T12:35:22.019Z,100153.00
2018-09-22T12:37:51.433Z,100171.00
2018-09-22T12:40:21.173Z,100166.00
2018-09-22T12:42:50.623Z,100174.00
2018-09-22T12:45:19.865Z,100178.00
2018-09-22T12:47:49.695Z,100180.00
2018-09-22T12:50:19.470Z,100187.00
2018-09-22T12:52:49.029Z,100195.00
2018-09-22T12:55:19.146Z,100217.00
2018-09-22T12:57:48.687Z,100217.00
2018-09-22T13:00:18.868Z,100235.00
2018-09-22T13:02:48.308Z,100257.00
2018-09-22T13:05:17.621Z,100259.00
2018-09-22T13:07:47.059Z,100236.00
2018-09-22T13:10:18.103Z,100234.00
2018-09-22T13:12:53.970Z,100244.00
2018-09-22T13:15:23.739Z,100236.00
2018-09-22T13:17:53.587Z,100231.00
2018-09-22T13:20:22.748Z,100224.00
2018-09-22T13:22:53.169Z,100223.00
2018-09-22T13:25:22.236Z,100226.00
2018-09-22T13:27:51.508Z,100211.00
2018-09-22T13:30:21.943Z,100213.00
2018-09-22T13:32:51.216Z,100215.00
2018-09-22T13:35:20.760Z,100217.00
2018-09-22T13:37:50.427Z,100224.00
2018-09-22T13:40:19.601Z,100215.00
2018-09-22T13:42:49.091Z,100214.00
2018-09-22T13:45:18.326Z,100212.00
2018-09-22T13:47:47.649Z,100209.00
2018-09-22T13:50:16.967Z,100211.00
2018-09-22T13:52:46.368Z,100214.00
2018-09-22T13:55:15.817Z,100229.00
2018-09-22T13:57:46.003Z,100238.00
2018-09-22T14:00:15.721Z,100234.00
2018-09-22T14:02:45.365Z,100235.00
2018-09-22T14:05:15.570Z,100239.00
2018-09-22T14:07:44.805Z,100237.00
2018-09-22T14:10:14.751Z,100219.00
2018-09-22T14:12:43.911Z,100210.00
2018-09-22T14:15:13.389Z,100210.00
2018-09-22T14:17:42.991Z,100198.00
2018-09-22T14:20:13.077Z,100199.00
2018-09-22T14:22:42.585Z,100198.00
2018-09-22T14:25:12.235Z,100190.00
2018-09-22T14:27:43.756Z,100188.00
2018-09-22T14:30:13.113Z,100202.00
2018-09-22T14:32:42.816Z,100186.00
2018-09-22T14:35:12.075Z,100186.00
2018-09-22T14:37:42.028Z,100175.00
2018-09-22T14:40:11.330Z,100160.00
2018-09-22T14:42:40.686Z,100170.00
2018-09-22T14:45:10.204Z,100172.00
2018-09-22T14:47:39.584Z,100164.00
2018-09-22T14:50:08.985Z,100160.00
2018-09-22T14:52:38.400Z,100163.00
2018-09-22T15:00:07.215Z,100151.00
2018-09-22T15:02:37.215Z,100153.00
2018-09-22T15:05:06.534Z,100166.00
2018-09-22T15:07:35.941Z,100173.00
2018-09-22T15:10:05.384Z,100173.00
2018-09-22T15:12:35.511Z,100168.00
2018-09-22T15:15:05.423Z,100158.00
2018-09-22T15:20:12.576Z,100150.00
2018-09-22T15:22:42.526Z,100149.00
2018-09-22T15:25:11.979Z,100145.00
2018-09-22T15:27:43.426Z,100138.00
2018-09-22T15:30:13.091Z,100136.00
2018-09-22T15:32:43.148Z,100137.00
2018-09-22T15:35:13.187Z,100145.00
2018-09-22T15:37:43.147Z,100136.00
2018-09-22T15:40:12.646Z,100145.00
2018-09-22T15:42:42.753Z,100151.00
2018-09-22T15:45:12.585Z,100147.00
2018-09-22T15:47:42.160Z,100150.00
2018-09-22T15:50:13.130Z,100158.00
2018-09-22T15:52:42.562Z,100161.00
2018-09-22T15:55:13.205Z,100166.00
2018-09-22T15:57:42.825Z,100164.00
2018-09-22T16:00:12.620Z,100166.00
2018-09-22T16:02:42.113Z,100169.00
2018-09-22T16:05:11.753Z,100169.00
2018-09-22T16:07:41.156Z,100168.00
2018-09-22T16:10:10.786Z,100170.00
2018-09-22T16:12:40.727Z,100170.00
2018-09-22T16:15:10.149Z,100164.00
2018-09-22T16:17:40.419Z,100162.00
2018-09-22T16:20:09.584Z,100158.00
2018-09-22T16:22:39.205Z,100149.00
2018-09-22T16:25:09.493Z,100153.00
2018-09-22T16:27:39.068Z,100152.00
2018-09-22T16:30:09.549Z,100153.00
2018-09-22T16:32:38.977Z,100149.00
2018-09-22T16:35:08.765Z,100155.00
2018-09-22T16:37:38.207Z,100149.00
2018-09-22T16:40:07.427Z,100146.00
2018-09-22T16:42:36.721Z,100135.00
2018-09-22T16:45:06.149Z,100133.00
2018-09-22T16:47:35.514Z,100130.00
2018-09-22T16:50:04.846Z,100128.00
2018-09-22T16:52:34.025Z,100112.00
2018-09-22T16:55:03.160Z,100116.00
2018-09-22T16:57:32.722Z,100107.00
2018-09-22T17:00:01.894Z,100119.00
2018-09-22T17:02:31.143Z,100126.00
2018-09-22T17:05:00.381Z,100121.00
2018-09-22T17:07:29.708Z,100123.00
2018-09-22T17:09:58.882Z,100113.00
2018-09-22T17:12:28.157Z,100114.00
2018-09-22T17:14:57.422Z,100112.00
2018-09-22T17:17:26.650Z,100105.00
2018-09-22T17:22:34.023Z,100107.00
2018-09-22T17:25:03.406Z,100099.00
2018-09-22T17:27:32.785Z,100106.00
2018-09-22T17:30:01.890Z,100100.00
2018-09-22T17:32:31.390Z,100098.00
2018-09-22T17:35:01.201Z,100103.00
2018-09-22T17:37:30.512Z,100103.00
2018-09-22T17:39:59.688Z,100099.00
2018-09-22T17:42:29.860Z,100094.00
2018-09-22T17:44:59.886Z,100103.00
2018-09-22T17:47:29.193Z,100100.00
2018-09-22T17:49:58.846Z,100098.00
2018-09-22T17:52:28.250Z,100103.00
2018-09-22T17:54:57.606Z,100106.00
2018-09-22T17:57:27.632Z,100093.00
2018-09-22T17:59:57.265Z,100096.00
2018-09-22T18:02:26.510Z,100107.00
2018-09-22T18:04:55.714Z,100111.00
2018-09-22T18:07:25.250Z,100108.00
2018-09-22T18:09:54.769Z,100119.00
2018-09-22T18:12:24.137Z,100123.00
2018-09-22T18:14:54.209Z,100117.00
2018-09-22T18:17:23.586Z,100123.00
2018-09-22T18:19:53.623Z,100117.00
2018-09-22T18:22:24.061Z,100111.00
2018-09-22T18:24:53.569Z,100112.00
2018-09-22T18:27:24.027Z,100116.00
2018-09-22T18:29:54.224Z,100117.00
2018-09-22T18:32:23.605Z,100107.00
2018-09-22T18:34:53.184Z,100120.00
2018-09-22T18:37:23.752Z,100119.00
2018-09-22T18:39:53.434Z,100116.00
2018-09-22T18:42:23.214Z,100106.00
2018-09-22T18:44:52.431Z,100104.00
2018-09-22T18:47:21.753Z,100109.00
2018-09-22T18:49:51.341Z,100108.00
2018-09-22T18:52:21.342Z,100119.00
2018-09-22T18:54:51.814Z,100136.00
2018-09-22T18:57:22.584Z,100126.00
2018-09-22T18:59:52.694Z,100109.00
2018-09-22T19:02:22.303Z,100120.00
2018-09-22T19:04:52.272Z,100102.00
2018-09-22T19:07:21.737Z,100107.00
2018-09-22T19:09:52.125Z,100102.00
2018-09-22T19:12:21.244Z,100111.00
2018-09-22T19:14:57.343Z,100111.00
2018-09-22T19:17:32.617Z,100100.00
2018-09-22T19:20:07.309Z,100096.00
2018-09-22T19:22:42.190Z,100095.00
2018-09-22T19:25:14.553Z,100104.00
2018-09-22T19:28:02.672Z,100107.00
2018-09-22T19:30:36.317Z,100115.00
2018-09-22T19:33:10.737Z,100104.00
2018-09-22T19:35:45.092Z,100096.00
2018-09-22T19:38:23.039Z,100091.00
2018-09-22T19:40:59.377Z,100100.00
2018-09-22T19:43:34.272Z,100101.00
2018-09-22T19:46:08.669Z,100099.00
2018-09-22T19:49:15.999Z,100086.00
2018-09-22T19:51:49.553Z,100079.00
2018-09-22T19:54:20.273Z,100082.00
2018-09-22T19:56:49.618Z,100070.00
2018-09-22T19:59:19.738Z,100073.00
2018-09-22T20:01:49.117Z,100084.00
2018-09-22T20:04:18.603Z,100089.00
2018-09-22T20:06:48.168Z,100089.00
2018-09-22T20:09:17.432Z,100092.00
2018-09-22T20:11:47.125Z,100091.00
2018-09-22T20:14:16.554Z,100088.00
2018-09-22T20:16:46.478Z,100079.00
2018-09-22T20:19:17.593Z,100069.00
2018-09-22T20:21:49.794Z,100068.00
2018-09-22T20:24:18.941Z,100070.00
2018-09-22T20:26:50.634Z,100069.00
2018-09-22T20:29:19.873Z,100060.00
2018-09-22T20:31:49.138Z,100065.00
2018-09-22T20:34:18.419Z,100058.00
2018-09-22T20:36:48.247Z,100056.00
2018-09-22T20:39:17.782Z,100057.00
2018-09-22T20:41:47.364Z,100045.00
2018-09-22T20:44:16.869Z,100037.00
2018-09-22T20:46:46.131Z,100038.00
2018-09-22T20:49:15.509Z,100035.00
2018-09-22T20:51:44.692Z,100025.00
2018-09-22T20:54:14.534Z,100030.00
2018-09-22T20:56:44.119Z,100030.00
2018-09-22T20:59:13.933Z,100028.00
2018-09-22T21:01:43.661Z,100020.00
2018-09-22T21:04:14.500Z,100013.00
2018-09-22T21:06:44.169Z,100011.00
2018-09-22T21:09:14.947Z,100008.00
2018-09-22T21:11:45.001Z,100010.00
2018-09-22T21:14:14.459Z,100010.00
2018-09-22T21:16:44.253Z,100012.00
2018-09-22T21:19:13.985Z,100010.00
2018-09-22T21:21:44.648Z,100012.00
2018-09-22T21:24:13.999Z,100008.00
2018-09-22T21:26:43.447Z,99997.00
2018-09-22T21:29:13.486Z,99992.00
2018-09-22T21:31:42.719Z,99984.00
2018-09-22T21:34:12.476Z,99992.00
2018-09-22T21:36:42.316Z,99997.00
2018-09-22T21:39:12.514Z,99998.00
2018-09-22T21:41:42.442Z,99995.00
2018-09-22T21:44:11.843Z,99995.00
2018-09-22T21:46:43.032Z,99985.00
2018-09-22T21:49:12.772Z,99979.00
2018-09-22T21:51:42.545Z,99977.00
2018-09-22T21:54:11.844Z,99962.00
2018-09-22T21:56:41.265Z,99953.00
2018-09-22T21:59:10.705Z,99946.00
2018-09-22T22:01:40.673Z,99941.00
2018-09-22T22:04:11.509Z,99942.00
2018-09-22T22:06:40.633Z,99947.00
2018-09-22T22:09:12.393Z,99945.00
2018-09-22T22:11:41.948Z,99942.00
2018-09-22T22:14:12.501Z,99930.00
2018-09-22T22:16:42.758Z,99920.00
2018-09-22T22:19:12.166Z,99916.00
2018-09-22T22:21:41.682Z,99926.00
2018-09-22T22:24:11.302Z,99922.00
2018-09-22T22:26:40.629Z,99910.00
2018-09-22T22:29:10.217Z,99899.00
2018-09-22T22:31:39.874Z,99892.00
2018-09-22T22:34:09.169Z,99898.00
2018-09-22T22:36:39.010Z,99895.00
2018-09-22T22:39:08.365Z,99899.00
2018-09-22T22:41:37.590Z,99910.00
2018-09-22T22:44:07.054Z,99915.00
2018-09-22T22:46:36.237Z,99911.00
2018-09-22T22:49:05.563Z,99906.00
2018-09-22T22:51:34.725Z,99898.00
2018-09-22T22:54:04.497Z,99894.00
2018-09-22T22:56:33.741Z,99891.00
2018-09-22T22:59:02.944Z,99887.00
2018-09-22T23:01:32.538Z,99880.00
2018-09-22T23:04:01.729Z,99881.00
2018-09-22T23:06:30.928Z,99885.00
2018-09-22T23:09:00.136Z,99881.00
2018-09-22T23:11:29.233Z,99872.00
2018-09-22T23:13:58.807Z,99873.00
2018-09-22T23:16:28.134Z,99870.00
2018-09-22T23:18:57.325Z,99864.00
2018-09-22T23:21:26.793Z,99850.00
2018-09-22T23:23:56.061Z,99842.00
2018-09-22T23:26:25.231Z,99824.00
2018-09-22T23:28:54.556Z,99823.00
2018-09-22T23:31:23.616Z,99821.00
2018-09-22T23:33:53.176Z,99818.00
2018-09-22T23:36:22.310Z,99811.00
2018-09-22T23:38:52.545Z,99819.00
2018-09-22T23:41:22.366Z,99813.00
2018-09-22T23:43:51.513Z,99815.00
2018-09-22T23:46:20.684Z,99807.00
2018-09-22T23:48:49.840Z,99811.00
2018-09-22T23:51:19.481Z,99811.00
2018-09-22T23:53:48.868Z,99808.00
2018-09-22T23:56:18.177Z,99805.00
2018-09-22T23:58:50.896Z,99792.00
